createdAt,value
2019-02-05T00:00:04.290Z,936.31
2019-02-05T00:01:04.299Z,936.31
2019-02-05T00:02:04.321Z,936.29
2019-02-05T00:03:04.278Z,936.33
2019-02-05T00:04:04.292Z,936.34
2019-02-05T00:05:04.236Z,936.36
2019-02-05T00:06:04.225Z,936.39
2019-02-05T00:07:04.267Z,936.39
2019-02-05T00:08:04.198Z,936.41
2019-02-05T00:09:04.201Z,936.39
2019-02-05T00:10:04.199Z,936.44
2019-02-05T00:11:04.173Z,936.37
2019-02-05T00:12:04.159Z,936.40
2019-02-05T00:13:04.182Z,936.42
2019-02-05T00:14:04.169Z,936.40
2019-02-05T00:15:04.161Z,936.40
2019-02-05T00:16:04.148Z,936.42
2019-02-05T00:17:04.113Z,936.44
2019-02-05T00:18:04.160Z,936.45
2019-02-05T00:19:04.106Z,936.40
2019-02-05T00:20:04.143Z,936.43
2019-02-05T00:21:04.082Z,936.46
2019-02-05T00:22:04.089Z,936.44
2019-02-05T00:23:04.092Z,936.49
2019-02-05T00:24:04.116Z,936.49
2019-02-05T00:25:04.052Z,936.45
2019-02-05T00:26:06.397Z,936.50
2019-02-05T00:27:04.020Z,936.55
2019-02-05T00:28:04.028Z,936.55
2019-02-05T00:29:04.010Z,936.63
2019-02-05T00:30:03.999Z,936.63
2019-02-05T00:31:04.009Z,936.58
2019-02-05T00:32:03.988Z,936.60
2019-02-05T00:33:03.968Z,936.58
2019-02-05T00:34:03.984Z,936.59
2019-02-05T00:35:03.959Z,936.55
2019-02-05T00:36:03.960Z,936.55
2019-02-05T00:37:03.928Z,936.57
2019-02-05T00:38:03.920Z,936.55
2019-02-05T00:39:03.938Z,936.56
2019-02-05T00:40:03.927Z,936.55
2019-02-05T00:41:03.893Z,936.62
2019-02-05T00:42:03.888Z,936.60
2019-02-05T00:43:03.902Z,936.61
2019-02-05T00:44:03.882Z,936.66
2019-02-05T00:45:03.866Z,936.68
2019-02-05T00:46:03.864Z,936.69
2019-02-05T00:47:03.855Z,936.69
2019-02-05T00:48:03.860Z,936.76
2019-02-05T00:49:03.847Z,936.74
2019-02-05T00:50:03.802Z,936.75
2019-02-05T00:51:03.822Z,936.71
2019-02-05T00:52:03.789Z,936.73
2019-02-05T00:53:03.793Z,936.76
2019-02-05T00:54:03.804Z,936.77
2019-02-05T00:55:03.792Z,936.73
2019-02-05T00:56:03.774Z,936.78
2019-02-05T00:57:03.764Z,936.71
2019-02-05T00:58:03.904Z,936.73
2019-02-05T00:59:03.732Z,936.72
2019-02-05T01:00:03.717Z,936.76
2019-02-05T01:01:03.774Z,936.76
2019-02-05T01:02:03.723Z,936.74
2019-02-05T01:03:03.709Z,936.74
2019-02-05T01:04:03.737Z,936.76
2019-02-05T01:05:03.686Z,936.71
2019-02-05T01:06:03.680Z,936.74
2019-02-05T01:07:03.711Z,936.73
2019-02-05T01:08:03.662Z,936.72
2019-02-05T01:09:03.683Z,936.72
2019-02-05T01:10:03.675Z,936.74
2019-02-05T01:11:03.631Z,936.70
2019-02-05T01:12:03.636Z,936.73
2019-02-05T01:13:03.620Z,936.65
2019-02-05T01:14:03.608Z,936.70
2019-02-05T01:15:03.577Z,936.66
2019-02-05T01:16:03.593Z,936.69
2019-02-05T01:17:03.571Z,936.71
2019-02-05T01:18:03.615Z,936.74
2019-02-05T01:19:03.548Z,936.72
2019-02-05T01:20:03.537Z,936.72
2019-02-05T01:21:03.523Z,936.68
2019-02-05T01:22:03.576Z,936.73
2019-02-05T01:23:03.505Z,936.74
2019-02-05T01:24:03.504Z,936.76
2019-02-05T01:25:03.505Z,936.76
2019-02-05T01:26:03.545Z,936.76
2019-02-05T01:27:03.468Z,936.79
2019-02-05T01:28:03.477Z,936.76
2019-02-05T01:29:03.454Z,936.76
2019-02-05T01:30:03.474Z,936.76
2019-02-05T01:31:03.450Z,936.81
2019-02-05T01:32:03.492Z,936.80
2019-02-05T01:33:03.434Z,936.83
2019-02-05T01:34:03.419Z,936.82
2019-02-05T01:35:03.425Z,936.85
2019-02-05T01:36:03.391Z,936.87
2019-02-05T01:37:03.403Z,936.85
2019-02-05T01:38:03.370Z,936.83
2019-02-05T01:39:03.380Z,936.81
2019-02-05T01:40:03.356Z,936.81
2019-02-05T01:41:03.366Z,936.79
2019-02-05T01:42:03.356Z,936.80
2019-02-05T01:43:03.341Z,936.79
2019-02-05T01:44:03.331Z,936.83
2019-02-05T01:45:03.322Z,936.87
2019-02-05T01:46:03.299Z,936.87
2019-02-05T01:47:03.313Z,936.86
2019-02-05T01:48:03.334Z,936.87
2019-02-05T01:49:03.279Z,936.79
2019-02-05T01:50:03.287Z,936.81
2019-02-05T01:51:03.300Z,936.82
2019-02-05T01:52:03.289Z,936.79
2019-02-05T01:53:03.232Z,936.81
2019-02-05T01:54:03.229Z,936.81
2019-02-05T01:55:03.222Z,936.79
2019-02-05T01:56:03.215Z,936.75
2019-02-05T01:57:03.210Z,936.80
2019-02-05T01:58:03.185Z,936.77
2019-02-05T01:59:03.183Z,936.75
2019-02-05T02:00:03.165Z,936.73
2019-02-05T02:01:03.165Z,936.69
2019-02-05T02:02:03.160Z,936.66
2019-02-05T02:03:03.132Z,936.66
2019-02-05T02:04:03.130Z,936.67
2019-02-05T02:05:03.149Z,936.66
2019-02-05T02:06:03.131Z,936.66
2019-02-05T02:07:03.091Z,936.68
2019-02-05T02:08:03.118Z,936.69
2019-02-05T02:09:03.088Z,936.64
2019-02-05T02:10:03.085Z,936.67
2019-02-05T02:11:03.075Z,936.63
2019-02-05T02:12:03.055Z,936.60
2019-02-05T02:13:03.060Z,936.63
2019-02-05T02:14:03.044Z,936.65
2019-02-05T02:15:03.033Z,936.67
2019-02-05T02:16:03.032Z,936.68
2019-02-05T02:17:03.016Z,936.68
2019-02-05T02:18:03.019Z,936.71
2019-02-05T02:19:03.008Z,936.66
2019-02-05T02:20:02.972Z,936.66
2019-02-05T02:21:02.998Z,936.63
2019-02-05T02:22:02.961Z,936.63
2019-02-05T02:23:02.947Z,936.61
2019-02-05T02:24:02.981Z,936.58
2019-02-05T02:25:02.950Z,936.52
2019-02-05T02:26:02.943Z,936.50
2019-02-05T02:27:02.923Z,936.49
2019-02-05T02:28:02.906Z,936.49
2019-02-05T02:29:02.911Z,936.50
2019-02-05T02:30:02.915Z,936.49
2019-02-05T02:31:02.880Z,936.48
2019-02-05T02:32:02.879Z,936.50
2019-02-05T02:33:02.877Z,936.53
2019-02-05T02:34:02.842Z,936.56
2019-02-05T02:35:02.840Z,936.51
2019-02-05T02:36:02.835Z,936.47
2019-02-05T02:37:02.826Z,936.43
2019-02-05T02:38:02.841Z,936.40
2019-02-05T02:39:02.801Z,936.38
2019-02-05T02:40:02.803Z,936.36
2019-02-05T02:41:02.793Z,936.40
2019-02-05T02:42:02.787Z,936.45
2019-02-05T02:43:02.750Z,936.49
2019-02-05T02:44:02.765Z,936.48
2019-02-05T02:45:02.740Z,936.51
2019-02-05T02:46:02.723Z,936.57
2019-02-05T02:47:02.728Z,936.62
2019-02-05T02:48:02.715Z,936.59
2019-02-05T02:49:02.705Z,936.61
2019-02-05T02:50:02.746Z,936.61
2019-02-05T02:51:02.703Z,936.58
2019-02-05T02:52:02.689Z,936.58
2019-02-05T02:53:02.661Z,936.57
2019-02-05T02:54:02.668Z,936.52
2019-02-05T02:55:02.659Z,936.55
2019-02-05T02:56:02.645Z,936.53
2019-02-05T02:57:04.893Z,936.54
2019-02-05T02:58:02.621Z,936.55
2019-02-05T02:59:02.613Z,936.54
2019-02-05T03:00:02.614Z,936.57
2019-02-05T03:01:02.603Z,936.53
2019-02-05T03:02:02.574Z,936.49
2019-02-05T03:03:02.616Z,936.46
2019-02-05T03:04:02.587Z,936.45
2019-02-05T03:05:02.567Z,936.45
2019-02-05T03:06:02.544Z,936.36
2019-02-05T03:07:02.538Z,936.39
2019-02-05T03:08:02.515Z,936.37
2019-02-05T03:09:02.579Z,936.31
2019-02-05T03:10:02.514Z,936.30
2019-02-05T03:11:02.505Z,936.28
2019-02-05T03:12:02.491Z,936.21
2019-02-05T03:13:02.470Z,936.22
2019-02-05T03:14:02.465Z,936.23
2019-02-05T03:15:02.469Z,936.24
2019-02-05T03:16:02.467Z,936.28
2019-02-05T03:17:02.452Z,936.26
2019-02-05T03:18:02.446Z,936.28
2019-02-05T03:19:02.418Z,936.28
2019-02-05T03:20:02.422Z,936.30
2019-02-05T03:21:02.416Z,936.28
2019-02-05T03:22:02.406Z,936.28
2019-02-05T03:23:02.373Z,936.28
2019-02-05T03:24:02.381Z,936.29
2019-02-05T03:25:02.374Z,936.27
2019-02-05T03:26:02.359Z,936.25
2019-02-05T03:27:02.362Z,936.22
2019-02-05T03:28:02.358Z,936.26
2019-02-05T03:29:02.321Z,936.23
2019-02-05T03:30:02.317Z,936.18
2019-02-05T03:31:02.332Z,936.23
2019-02-05T03:32:02.312Z,936.23
2019-02-05T03:33:02.296Z,936.20
2019-02-05T03:34:02.278Z,936.20
2019-02-05T03:35:02.278Z,936.12
2019-02-05T03:36:02.272Z,936.08
2019-02-05T03:37:02.252Z,936.07
2019-02-05T03:38:02.253Z,936.03
2019-02-05T03:39:02.247Z,935.95
2019-02-05T03:40:02.238Z,935.95
2019-02-05T03:41:02.239Z,935.94
2019-02-05T03:42:02.218Z,935.90
2019-02-05T03:43:02.203Z,935.92
2019-02-05T03:44:02.195Z,935.94
2019-02-05T03:45:02.210Z,935.96
2019-02-05T03:46:02.169Z,935.90
2019-02-05T03:47:02.165Z,935.87
2019-02-05T03:48:02.138Z,935.84
2019-02-05T03:49:02.173Z,935.85
2019-02-05T03:50:02.120Z,935.81
2019-02-05T03:51:02.149Z,935.76
2019-02-05T03:52:02.115Z,935.76
2019-02-05T03:53:02.089Z,935.76
2019-02-05T03:54:02.105Z,935.74
2019-02-05T03:55:02.123Z,935.72
2019-02-05T03:56:02.088Z,935.73
2019-02-05T03:57:02.108Z,935.67
2019-02-05T03:58:02.056Z,935.65
2019-02-05T03:59:02.058Z,935.64
2019-02-05T04:00:02.049Z,935.61
2019-02-05T04:01:02.034Z,935.63
2019-02-05T04:02:02.013Z,935.62
2019-02-05T04:03:02.075Z,935.64
2019-02-05T04:04:02.009Z,935.62
2019-02-05T04:05:02.030Z,935.63
2019-02-05T04:06:01.999Z,935.65
2019-02-05T04:07:01.972Z,935.61
2019-02-05T04:08:01.953Z,935.60
2019-02-05T04:09:01.997Z,935.58
2019-02-05T04:10:01.962Z,935.56
2019-02-05T04:11:01.933Z,935.54
2019-02-05T04:12:01.945Z,935.54
2019-02-05T04:13:01.916Z,935.56
2019-02-05T04:14:01.920Z,935.54
2019-02-05T04:15:01.892Z,935.55
2019-02-05T04:16:01.892Z,935.57
2019-02-05T04:17:01.879Z,935.60
2019-02-05T04:18:01.921Z,935.59
2019-02-05T04:19:01.878Z,935.56
2019-02-05T04:20:01.870Z,935.53
2019-02-05T04:21:01.827Z,935.53
2019-02-05T04:22:01.823Z,935.54
2019-02-05T04:23:01.823Z,935.51
2019-02-05T04:24:01.821Z,935.47
2019-02-05T04:25:01.808Z,935.43
2019-02-05T04:26:01.801Z,935.43
2019-02-05T04:27:01.877Z,935.39
2019-02-05T04:28:01.769Z,935.39
2019-02-05T04:29:01.829Z,935.33
2019-02-05T04:30:01.776Z,935.33
2019-02-05T04:31:01.747Z,935.31
2019-02-05T04:32:01.758Z,935.31
2019-02-05T04:33:01.744Z,935.31
2019-02-05T04:34:01.728Z,935.34
2019-02-05T04:35:01.697Z,935.32
2019-02-05T04:36:01.721Z,935.32
2019-02-05T04:37:01.684Z,935.34
2019-02-05T04:38:01.691Z,935.35
2019-02-05T04:39:01.660Z,935.32
2019-02-05T04:40:01.712Z,935.30
2019-02-05T04:41:01.798Z,935.28
2019-02-05T04:42:01.662Z,935.29
2019-02-05T04:43:01.633Z,935.28
2019-02-05T04:44:01.671Z,935.29
2019-02-05T04:45:01.618Z,935.22
2019-02-05T04:46:01.612Z,935.20
2019-02-05T04:47:01.608Z,935.19
2019-02-05T04:48:01.606Z,935.16
2019-02-05T04:49:01.558Z,935.19
2019-02-05T04:50:01.625Z,935.17
2019-02-05T04:51:01.562Z,935.20
2019-02-05T04:52:01.558Z,935.18
2019-02-05T04:53:01.586Z,935.22
2019-02-05T04:54:01.525Z,935.23
2019-02-05T04:55:01.555Z,935.23
2019-02-05T04:56:01.521Z,935.19
2019-02-05T04:57:01.501Z,935.16
2019-02-05T04:58:01.681Z,935.11
2019-02-05T04:59:01.485Z,935.10
2019-02-05T05:00:01.466Z,935.06
2019-02-05T05:01:01.509Z,935.03
2019-02-05T05:02:01.452Z,935.05
2019-02-05T05:03:01.441Z,935.01
2019-02-05T05:04:01.434Z,935.01
2019-02-05T05:05:01.420Z,935.00
2019-02-05T05:06:01.426Z,934.98
2019-02-05T05:07:01.433Z,934.99
2019-02-05T05:08:01.451Z,934.95
2019-02-05T05:09:01.393Z,934.94
2019-02-05T05:10:01.400Z,934.94
2019-02-05T05:11:01.371Z,934.95
2019-02-05T05:12:01.368Z,934.90
2019-02-05T05:13:01.345Z,934.92
2019-02-05T05:14:01.340Z,934.91
2019-02-05T05:15:01.339Z,934.92
2019-02-05T05:16:01.369Z,934.90
2019-02-05T05:17:01.300Z,934.90
2019-02-05T05:18:01.291Z,934.90
2019-02-05T05:19:01.343Z,934.94
2019-02-05T05:20:01.296Z,934.95
2019-02-05T05:21:01.274Z,935.00
2019-02-05T05:22:01.273Z,934.99
2019-02-05T05:23:01.297Z,934.97
2019-02-05T05:24:01.256Z,935.00
2019-02-05T05:25:01.224Z,934.98
2019-02-05T05:26:01.224Z,934.99
2019-02-05T05:27:01.230Z,934.98
2019-02-05T05:28:09.672Z,934.99
2019-02-05T05:29:01.317Z,935.03
2019-02-05T05:30:01.201Z,935.03
2019-02-05T05:31:01.190Z,935.04
2019-02-05T05:32:01.212Z,935.04
2019-02-05T05:33:01.168Z,935.03
2019-02-05T05:34:01.174Z,935.01
2019-02-05T05:35:01.156Z,934.99
2019-02-05T05:36:01.129Z,935.06
2019-02-05T05:37:01.123Z,935.02
2019-02-05T05:38:01.108Z,935.05
2019-02-05T05:39:01.108Z,935.01
2019-02-05T05:40:01.091Z,934.94
2019-02-05T05:41:01.077Z,934.95
2019-02-05T05:42:01.089Z,934.89
2019-02-05T05:43:01.078Z,934.82
2019-02-05T05:44:01.066Z,934.83
2019-02-05T05:45:01.062Z,934.85
2019-02-05T05:46:01.033Z,934.87
2019-02-05T05:47:01.034Z,934.89
2019-02-05T05:48:01.252Z,934.86
2019-02-05T05:49:01.024Z,934.88
2019-02-05T05:50:00.988Z,934.85
2019-02-05T05:51:01.008Z,934.80
2019-02-05T05:52:00.964Z,934.79
2019-02-05T05:53:00.982Z,934.77
2019-02-05T05:54:00.958Z,934.75
2019-02-05T05:55:00.968Z,934.73
2019-02-05T05:56:00.983Z,934.70
2019-02-05T05:57:00.943Z,934.72
2019-02-05T05:58:00.942Z,934.67
2019-02-05T05:59:01.077Z,934.67
2019-02-05T06:00:00.904Z,934.63
2019-02-05T06:01:00.883Z,934.63
2019-02-05T06:02:00.898Z,934.62
2019-02-05T06:03:00.860Z,934.66
2019-02-05T06:04:00.879Z,934.64
2019-02-05T06:05:00.876Z,934.61
2019-02-05T06:06:00.847Z,934.54
2019-02-05T06:07:00.837Z,934.55
2019-02-05T06:08:00.829Z,934.55
2019-02-05T06:09:00.839Z,934.55
2019-02-05T06:10:00.842Z,934.51
2019-02-05T06:11:00.798Z,934.49
2019-02-05T06:12:00.794Z,934.48
2019-02-05T06:13:00.795Z,934.45
2019-02-05T06:14:00.881Z,934.47
2019-02-05T06:15:00.796Z,934.47
2019-02-05T06:16:00.745Z,934.43
2019-02-05T06:17:00.740Z,934.44
2019-02-05T06:18:00.721Z,934.41
2019-02-05T06:19:00.725Z,934.39
2019-02-05T06:20:00.736Z,934.36
2019-02-05T06:21:00.708Z,934.38
2019-02-05T06:22:00.699Z,934.32
2019-02-05T06:23:00.706Z,934.30
2019-02-05T06:24:00.692Z,934.29
2019-02-05T06:25:00.724Z,934.36
2019-02-05T06:26:00.651Z,934.38
2019-02-05T06:27:00.646Z,934.39
2019-02-05T06:28:00.639Z,934.36
2019-02-05T06:29:00.646Z,934.36
2019-02-05T06:30:00.621Z,934.36
2019-02-05T06:31:00.632Z,934.40
2019-02-05T06:32:00.590Z,934.42
2019-02-05T06:33:00.611Z,934.44
2019-02-05T06:34:00.622Z,934.42
2019-02-05T06:35:00.727Z,934.42
2019-02-05T06:36:00.589Z,934.42
2019-02-05T06:37:00.559Z,934.41
2019-02-05T06:38:00.569Z,934.41
2019-02-05T06:39:00.550Z,934.39
2019-02-05T06:40:00.548Z,934.40
2019-02-05T06:41:00.536Z,934.40
2019-02-05T06:42:00.513Z,934.40
2019-02-05T06:43:00.497Z,934.42
2019-02-05T06:44:00.493Z,934.48
2019-02-05T06:45:00.500Z,934.46
2019-02-05T06:46:00.464Z,934.53
2019-02-05T06:47:00.468Z,934.55
2019-02-05T06:48:00.463Z,934.62
2019-02-05T06:49:00.452Z,934.59
2019-02-05T06:50:00.449Z,934.61
2019-02-05T06:51:00.470Z,934.59
2019-02-05T06:52:00.428Z,934.60
2019-02-05T06:53:00.426Z,934.59
2019-02-05T06:54:00.414Z,934.59
2019-02-05T06:55:00.392Z,934.57
2019-02-05T06:56:00.375Z,934.55
2019-02-05T06:57:00.378Z,934.53
2019-02-05T06:58:00.368Z,934.55
2019-02-05T06:59:00.414Z,934.54
2019-02-05T07:00:00.340Z,934.53
2019-02-05T07:01:00.333Z,934.48
2019-02-05T07:02:00.333Z,934.45
2019-02-05T07:03:00.320Z,934.40
2019-02-05T07:04:00.313Z,934.40
2019-02-05T07:05:00.307Z,934.40
2019-02-05T07:06:00.299Z,934.36
2019-02-05T07:07:00.427Z,934.46
2019-02-05T07:08:00.267Z,934.44
2019-02-05T07:09:00.275Z,934.44
2019-02-05T07:10:00.253Z,934.47
2019-02-05T07:11:00.245Z,934.47
2019-02-05T07:12:00.226Z,934.47
2019-02-05T07:13:00.238Z,934.50
2019-02-05T07:14:00.274Z,934.46
2019-02-05T07:15:00.373Z,934.51
2019-02-05T07:16:00.190Z,934.54
2019-02-05T07:17:00.342Z,934.53
2019-02-05T07:18:00.184Z,934.55
2019-02-05T07:19:00.190Z,934.55
2019-02-05T07:20:00.357Z,934.53
2019-02-05T07:21:00.163Z,934.52
2019-02-05T07:22:00.181Z,934.55
2019-02-05T07:23:00.122Z,934.49
2019-02-05T07:24:00.126Z,934.55
2019-02-05T07:25:00.349Z,934.49
2019-02-05T07:26:00.096Z,934.47
2019-02-05T07:27:00.099Z,934.44
2019-02-05T07:28:00.077Z,934.42
2019-02-05T07:29:02.076Z,934.38
2019-02-05T07:30:00.052Z,934.38
2019-02-05T07:31:00.064Z,934.38
2019-02-05T07:32:00.047Z,934.37
2019-02-05T07:33:00.047Z,934.35
2019-02-05T07:34:00.008Z,934.38
2019-02-05T07:35:00.055Z,934.37
2019-02-05T07:36:00.007Z,934.38
2019-02-05T07:37:00.012Z,934.39
2019-02-05T07:37:59.998Z,934.40
2019-02-05T07:38:59.994Z,934.40
2019-02-05T07:39:59.985Z,934.42
2019-02-05T07:41:00.000Z,934.40
2019-02-05T07:41:59.949Z,934.43
2019-02-05T07:42:59.949Z,934.40
2019-02-05T07:43:59.933Z,934.43
2019-02-05T07:44:59.933Z,934.41
2019-02-05T07:45:59.907Z,934.44
2019-02-05T07:46:59.916Z,934.43
2019-02-05T07:47:59.883Z,934.42
2019-02-05T07:48:59.901Z,934.44
2019-02-05T07:49:59.873Z,934.41
2019-02-05T07:50:59.905Z,934.48
2019-02-05T07:51:59.863Z,934.49
2019-02-05T07:52:59.843Z,934.49
2019-02-05T07:53:59.851Z,934.46
2019-02-05T07:54:59.827Z,934.48
2019-02-05T07:55:59.803Z,934.50
2019-02-05T07:56:59.809Z,934.46
2019-02-05T07:57:59.802Z,934.47
2019-02-05T07:59:09.789Z,934.47
2019-02-05T07:59:59.782Z,934.51
2019-02-05T08:00:59.765Z,934.51
2019-02-05T08:01:59.759Z,934.56
2019-02-05T08:02:59.767Z,934.51
2019-02-05T08:03:59.785Z,934.49
2019-02-05T08:05:00.787Z,934.50
2019-02-05T08:05:59.733Z,934.51
2019-02-05T08:06:59.708Z,934.50
2019-02-05T08:07:59.719Z,934.52
2019-02-05T08:08:59.706Z,934.54
2019-02-05T08:09:59.683Z,934.50
2019-02-05T08:10:59.718Z,934.48
2019-02-05T08:11:59.675Z,934.51
2019-02-05T08:12:59.656Z,934.50
2019-02-05T08:13:59.648Z,934.45
2019-02-05T08:14:59.653Z,934.42
2019-02-05T08:15:59.644Z,934.44
2019-02-05T08:16:59.641Z,934.40
2019-02-05T08:17:59.612Z,934.48
2019-02-05T08:18:59.616Z,934.41
2019-02-05T08:19:59.599Z,934.45
2019-02-05T08:20:59.598Z,934.47
2019-02-05T08:21:59.587Z,934.46
2019-02-05T08:22:59.576Z,934.46
2019-02-05T08:23:59.541Z,934.47
2019-02-05T08:24:59.550Z,934.48
2019-02-05T08:25:59.536Z,934.45
2019-02-05T08:26:59.518Z,934.44
2019-02-05T08:27:59.517Z,934.41
2019-02-05T08:28:59.554Z,934.44
2019-02-05T08:29:59.520Z,934.43
2019-02-05T08:30:59.483Z,934.41
2019-02-05T08:31:59.485Z,934.40
2019-02-05T08:32:59.487Z,934.42
2019-02-05T08:33:59.471Z,934.42
2019-02-05T08:34:59.461Z,934.46
2019-02-05T08:35:59.448Z,934.45
2019-02-05T08:36:59.427Z,934.48
2019-02-05T08:37:59.427Z,934.49
2019-02-05T08:38:59.424Z,934.51
2019-02-05T08:39:59.420Z,934.54
2019-02-05T08:40:59.399Z,934.62
2019-02-05T08:41:59.376Z,934.61
2019-02-05T08:42:59.395Z,934.63
2019-02-05T08:43:59.371Z,934.66
2019-02-05T08:44:59.376Z,934.72
2019-02-05T08:45:59.360Z,934.71
2019-02-05T08:46:59.355Z,934.73
2019-02-05T08:47:59.349Z,934.74
2019-02-05T08:48:59.333Z,934.74
2019-02-05T08:49:59.329Z,934.76
2019-02-05T08:50:59.316Z,934.74
2019-02-05T08:51:59.298Z,934.73
2019-02-05T08:52:59.304Z,934.72
2019-02-05T08:53:59.302Z,934.72
2019-02-05T08:54:59.280Z,934.76
2019-02-05T08:55:59.273Z,934.71
2019-02-05T08:56:59.268Z,934.70
2019-02-05T08:57:59.294Z,934.71
2019-02-05T08:58:59.289Z,934.71
2019-02-05T08:59:59.253Z,934.66
2019-02-05T09:00:59.267Z,934.67
2019-02-05T09:01:59.227Z,934.62
2019-02-05T09:02:59.203Z,934.65
2019-02-05T09:03:59.193Z,934.66
2019-02-05T09:04:59.196Z,934.68
2019-02-05T09:05:59.196Z,934.70
2019-02-05T09:06:59.164Z,934.70
2019-02-05T09:07:59.165Z,934.76
2019-02-05T09:08:59.146Z,934.74
2019-02-05T09:09:59.137Z,934.78
2019-02-05T09:10:59.149Z,934.80
2019-02-05T09:11:59.126Z,934.81
2019-02-05T09:12:59.118Z,934.86
2019-02-05T09:14:10.333Z,934.84
2019-02-05T09:14:59.101Z,934.89
2019-02-05T09:15:59.083Z,934.89
2019-02-05T09:16:59.078Z,934.90
2019-02-05T09:17:59.082Z,934.94
2019-02-05T09:18:59.077Z,934.90
2019-02-05T09:19:59.058Z,934.94
2019-02-05T09:20:59.055Z,934.94
2019-02-05T09:21:59.043Z,935.00
2019-02-05T09:22:59.071Z,935.00
2019-02-05T09:23:59.019Z,935.02
2019-02-05T09:24:59.014Z,935.04
2019-02-05T09:25:59.029Z,935.02
2019-02-05T09:26:58.979Z,935.07
2019-02-05T09:27:58.971Z,935.04
2019-02-05T09:28:58.986Z,935.06
2019-02-05T09:29:58.966Z,935.08
2019-02-05T09:30:58.971Z,935.09
2019-02-05T09:31:58.957Z,935.05
2019-02-05T09:32:58.957Z,935.09
2019-02-05T09:33:58.942Z,935.09
2019-02-05T09:34:58.938Z,935.08
2019-02-05T09:35:58.962Z,935.11
2019-02-05T09:36:58.926Z,935.12
2019-02-05T09:37:58.893Z,935.16
2019-02-05T09:38:58.881Z,935.14
2019-02-05T09:39:58.884Z,935.18
2019-02-05T09:40:58.871Z,935.21
2019-02-05T09:41:58.856Z,935.20
2019-02-05T09:42:58.849Z,935.20
2019-02-05T09:43:58.896Z,935.20
2019-02-05T09:44:58.837Z,935.16
2019-02-05T09:45:58.935Z,935.18
2019-02-05T09:46:58.818Z,935.13
2019-02-05T09:47:58.798Z,935.10
2019-02-05T09:48:58.792Z,935.13
2019-02-05T09:49:58.809Z,935.13
2019-02-05T09:50:58.787Z,935.12
2019-02-05T09:51:58.786Z,935.13
2019-02-05T09:52:58.776Z,935.16
2019-02-05T09:53:58.756Z,935.17
2019-02-05T09:54:58.913Z,935.17
2019-02-05T09:55:58.741Z,935.22
2019-02-05T09:56:58.721Z,935.25
2019-02-05T09:57:58.741Z,935.23
2019-02-05T09:58:58.723Z,935.25
2019-02-05T09:59:58.764Z,935.26
2019-02-05T10:00:59.803Z,935.26
2019-02-05T10:01:58.688Z,935.28
2019-02-05T10:02:58.675Z,935.28
2019-02-05T10:03:58.675Z,935.28
2019-02-05T10:04:58.686Z,935.27
2019-02-05T10:05:58.674Z,935.25
2019-02-05T10:06:58.657Z,935.21
2019-02-05T10:07:58.622Z,935.21
2019-02-05T10:08:58.645Z,935.19
2019-02-05T10:09:58.603Z,935.16
2019-02-05T10:10:58.632Z,935.14
2019-02-05T10:11:58.599Z,935.09
2019-02-05T10:12:58.713Z,935.12
2019-02-05T10:13:58.589Z,935.07
2019-02-05T10:14:58.572Z,935.14
2019-02-05T10:15:58.580Z,935.13
2019-02-05T10:16:58.584Z,935.17
2019-02-05T10:17:58.571Z,935.13
2019-02-05T10:18:58.556Z,935.15
2019-02-05T10:19:58.548Z,935.15
2019-02-05T10:20:58.517Z,935.20
2019-02-05T10:21:58.518Z,935.13
2019-02-05T10:22:58.519Z,935.16
2019-02-05T10:23:58.517Z,935.19
2019-02-05T10:24:58.506Z,935.18
2019-02-05T10:25:58.479Z,935.16
2019-02-05T10:26:58.523Z,935.17
2019-02-05T10:27:58.514Z,935.16
2019-02-05T10:28:58.512Z,935.12
2019-02-05T10:29:59.640Z,935.15
2019-02-05T10:30:58.441Z,935.08
2019-02-05T10:31:58.433Z,935.15
2019-02-05T10:32:58.478Z,935.17
2019-02-05T10:33:58.430Z,935.19
2019-02-05T10:34:58.416Z,935.22
2019-02-05T10:36:01.188Z,935.24
2019-02-05T10:36:58.399Z,935.28
2019-02-05T10:37:58.384Z,935.33
2019-02-05T10:38:58.362Z,935.32
2019-02-05T10:39:58.368Z,935.35
2019-02-05T10:40:58.364Z,935.37
2019-02-05T10:41:58.365Z,935.39
2019-02-05T10:42:58.394Z,935.39
2019-02-05T10:43:58.327Z,935.40
2019-02-05T10:44:58.342Z,935.40
2019-02-05T10:45:58.328Z,935.43
2019-02-05T10:46:58.298Z,935.42
2019-02-05T10:47:58.301Z,935.43
2019-02-05T10:48:58.283Z,935.40
2019-02-05T10:49:58.277Z,935.41
2019-02-05T10:50:58.274Z,935.39
2019-02-05T10:51:58.278Z,935.35
2019-02-05T10:52:58.266Z,935.34
2019-02-05T10:53:58.275Z,935.37
2019-02-05T10:54:58.260Z,935.34
2019-02-05T10:55:58.239Z,935.32
2019-02-05T10:56:58.246Z,935.31
2019-02-05T10:57:58.230Z,935.35
2019-02-05T10:58:58.217Z,935.35
2019-02-05T11:00:08.397Z,935.40
2019-02-05T11:00:58.221Z,935.40
2019-02-05T11:01:58.193Z,935.36
2019-02-05T11:02:58.197Z,935.41
2019-02-05T11:03:58.167Z,935.42
2019-02-05T11:04:58.178Z,935.42
2019-02-05T11:05:58.171Z,935.40
2019-02-05T11:06:58.151Z,935.43
2019-02-05T11:07:58.147Z,935.47
2019-02-05T11:08:58.147Z,935.46
2019-02-05T11:09:58.131Z,935.42
2019-02-05T11:10:58.104Z,935.45
2019-02-05T11:11:58.095Z,935.41
2019-02-05T11:12:58.103Z,935.44
2019-02-05T11:13:58.112Z,935.45
2019-02-05T11:14:58.097Z,935.43
2019-02-05T11:15:58.076Z,935.47
2019-02-05T11:16:58.060Z,935.44
2019-02-05T11:17:58.054Z,935.40
2019-02-05T11:18:58.047Z,935.38
2019-02-05T11:19:58.047Z,935.41
2019-02-05T11:20:58.032Z,935.38
2019-02-05T11:21:58.048Z,935.43
2019-02-05T11:22:58.011Z,935.48
2019-02-05T11:23:58.003Z,935.48
2019-02-05T11:24:58.137Z,935.52
2019-02-05T11:25:58.044Z,935.51
2019-02-05T11:26:57.993Z,935.45
2019-02-05T11:27:58.003Z,935.53
2019-02-05T11:28:57.967Z,935.47
2019-02-05T11:29:57.969Z,935.46
2019-02-05T11:30:57.955Z,935.47
2019-02-05T11:31:57.950Z,935.45
2019-02-05T11:32:57.936Z,935.49
2019-02-05T11:33:57.941Z,935.48
2019-02-05T11:34:57.928Z,935.48
2019-02-05T11:35:57.908Z,935.50
2019-02-05T11:36:57.894Z,935.49
2019-02-05T11:37:57.921Z,935.55
2019-02-05T11:38:57.942Z,935.56
2019-02-05T11:39:57.889Z,935.53
2019-02-05T11:40:57.882Z,935.57
2019-02-05T11:41:57.884Z,935.58
2019-02-05T11:42:57.873Z,935.56
2019-02-05T11:43:57.855Z,935.56
2019-02-05T11:44:57.844Z,935.57
2019-02-05T11:45:57.854Z,935.57
2019-02-05T11:46:57.838Z,935.59
2019-02-05T11:47:57.810Z,935.60
2019-02-05T11:48:57.823Z,935.61
2019-02-05T11:50:01.223Z,935.63
2019-02-05T11:50:57.813Z,935.57
2019-02-05T11:51:57.807Z,935.58
2019-02-05T11:52:57.801Z,935.57
2019-02-05T11:53:57.765Z,935.57
2019-02-05T11:54:57.809Z,935.54
2019-02-05T11:55:57.747Z,935.59
2019-02-05T11:56:57.738Z,935.58
2019-02-05T11:57:57.731Z,935.58
2019-02-05T11:58:57.740Z,935.51
2019-02-05T11:59:57.747Z,935.55
2019-02-05T12:00:57.730Z,935.52
2019-02-05T12:01:57.701Z,935.52
2019-02-05T12:02:57.717Z,935.52
2019-02-05T12:03:57.702Z,935.54
2019-02-05T12:04:57.701Z,935.53
2019-02-05T12:05:57.737Z,935.57
2019-02-05T12:06:57.663Z,935.57
2019-02-05T12:07:57.674Z,935.61
2019-02-05T12:08:57.663Z,935.57
2019-02-05T12:09:57.638Z,935.61
2019-02-05T12:10:57.629Z,935.60
2019-02-05T12:11:57.654Z,935.62
2019-02-05T12:12:57.634Z,935.65
2019-02-05T12:13:57.614Z,935.67
2019-02-05T12:14:57.636Z,935.70
2019-02-05T12:15:57.597Z,935.68
2019-02-05T12:16:57.613Z,935.71
2019-02-05T12:17:57.577Z,935.70
2019-02-05T12:18:57.595Z,935.68
2019-02-05T12:19:57.583Z,935.70
2019-02-05T12:20:57.573Z,935.69
2019-02-05T12:21:57.563Z,935.70
2019-02-05T12:22:57.555Z,935.72
2019-02-05T12:23:57.560Z,935.75
2019-02-05T12:24:57.559Z,935.73
2019-02-05T12:25:57.580Z,935.74
2019-02-05T12:26:57.517Z,935.77
2019-02-05T12:27:57.515Z,935.81